Terminal Aerodrome Forecast
Issued by NWS

Home | Current Version | Previous Version | Text Only | Print | Product List | Glossary On
Versions: 1 2 3 4 5 6 7 8 9 10 11 12 13 14 15 16 17 18 19 20 21 22 23 24 25
000
FTUS46 KSEW 281720
TAFSEA
TAF
KSEA 281720Z 2818/2924 33006KT P6SM SKC
     FM290600 VRB03KT P6SM SKC
     FM291100 20004KT P6SM OVC006
     FM291700 26005KT P6SM SCT015
     FM291900 31008KT P6SM SKC=

USA.gov is the U.S. government's official web portal to all federal, state and local government web resources and services.